sensor_id;sensor_type;location;lat;lon;timestamp;temperature;humidity
9116;DHT22;4593;53.652;10.168;2023-04-15T00:00:27;7.20;98.40
9116;DHT22;4593;53.652;10.168;2023-04-15T00:02:53;7.20;98.80
9116;DHT22;4593;53.652;10.168;2023-04-15T00:05:20;7.10;99.40
9116;DHT22;4593;53.652;10.168;2023-04-15T00:07:45;6.90;100.00
9116;DHT22;4593;53.652;10.168;2023-04-15T00:10:12;6.80;100.00
9116;DHT22;4593;53.652;10.168;2023-04-15T00:12:39;6.80;100.00
9116;DHT22;4593;53.652;10.168;2023-04-15T00:15:06;6.80;100.00
9116;DHT22;4593;53.652;10.168;2023-04-15T00:17:33;6.80;100.00
9116;DHT22;4593;53.652;10.168;2023-04-15T00:19:59;6.90;100.00
9116;DHT22;4593;53.652;10.168;2023-04-15T00:22:26;6.90;100.00
9116;DHT22;4593;53.652;10.168;2023-04-15T00:24:54;7.00;100.00
9116;DHT22;4593;53.652;10.168;2023-04-15T00:27:20;7.20;100.00
9116;DHT22;4593;53.652;10.168;2023-04-15T00:29:46;7.20;100.00
9116;DHT22;4593;53.652;10.168;2023-04-15T00:32:12;7.00;100.00
9116;DHT22;4593;53.652;10.168;2023-04-15T00:34:37;7.00;100.00
9116;DHT22;4593;53.652;10.168;2023-04-15T00:37:03;7.10;100.00
9116;DHT22;4593;53.652;10.168;2023-04-15T00:39:29;7.10;100.00
9116;DHT22;4593;53.652;10.168;2023-04-15T00:41:55;7.00;100.00
9116;DHT22;4593;53.652;10.168;2023-04-15T00:44:22;6.90;100.00
9116;DHT22;4593;53.652;10.168;2023-04-15T00:46:50;6.90;100.00
9116;DHT22;4593;53.652;10.168;2023-04-15T00:49:15;6.90;100.00
9116;DHT22;4593;53.652;10.168;2023-04-15T00:51:43;6.90;100.00
9116;DHT22;4593;53.652;10.168;2023-04-15T00:54:09;7.00;100.00
9116;DHT22;4593;53.652;10.168;2023-04-15T00:56:36;7.00;100.00
9116;DHT22;4593;53.652;10.168;2023-04-15T00:59:05;7.10;100.00
9116;DHT22;4593;53.652;10.168;2023-04-15T01:01:34;7.10;100.00
9116;DHT22;4593;53.652;10.168;2023-04-15T01:04:00;7.30;100.00
9116;DHT22;4593;53.652;10.168;2023-04-15T01:06:26;7.10;100.00
9116;DHT22;4593;53.652;10.168;2023-04-15T01:08:56;7.10;100.00
9116;DHT22;4593;53.652;10.168;2023-04-15T01:11:22;7.20;100.00
9116;DHT22;4593;53.652;10.168;2023-04-15T01:13:52;7.20;100.00
9116;DHT22;4593;53.652;10.168;2023-04-15T01:16:20;7.20;100.00
9116;DHT22;4593;53.652;10.168;2023-04-15T01:18:45;7.00;100.00
9116;DHT22;4593;53.652;10.168;2023-04-15T01:21:11;7.10;100.00
9116;DHT22;4593;53.652;10.168;2023-04-15T01:23:37;6.90;100.00
9116;DHT22;4593;53.652;10.168;2023-04-15T01:26:05;6.90;100.00
9116;DHT22;4593;53.652;10.168;2023-04-15T01:28:32;6.90;100.00
9116;DHT22;4593;53.652;10.168;2023-04-15T01:31:24;6.90;100.00
9116;DHT22;4593;53.652;10.168;2023-04-15T01:33:50;6.90;100.00
9116;DHT22;4593;53.652;10.168;2023-04-15T01:36:16;7.00;100.00
9116;DHT22;4593;53.652;10.168;2023-04-15T01:38:42;7.00;100.00
9116;DHT22;4593;53.652;10.168;2023-04-15T01:41:07;7.10;100.00
9116;DHT22;4593;53.652;10.168;2023-04-15T01:43:36;7.20;100.00
9116;DHT22;4593;53.652;10.168;2023-04-15T01:46:02;7.20;100.00
9116;DHT22;4593;53.652;10.168;2023-04-15T01:48:28;7.30;100.00
9116;DHT22;4593;53.652;10.168;2023-04-15T01:50:54;7.10;100.00
9116;DHT22;4593;53.652;10.168;2023-04-15T01:53:19;7.00;100.00
9116;DHT22;4593;53.652;10.168;2023-04-15T01:55:45;7.10;100.00
9116;DHT22;4593;53.652;10.168;2023-04-15T01:58:11;7.10;100.00
9116;DHT22;4593;53.652;10.168;2023-04-15T02:00:37;7.30;100.00
9116;DHT22;4593;53.652;10.168;2023-04-15T02:03:02;7.20;100.00
9116;DHT22;4593;53.652;10.168;2023-04-15T02:05:28;7.30;100.00
9116;DHT22;4593;53.652;10.168;2023-04-15T02:07:54;7.20;100.00
9116;DHT22;4593;53.652;10.168;2023-04-15T02:10:20;7.10;100.00
9116;DHT22;4593;53.652;10.168;2023-04-15T02:12:45;7.20;100.00
9116;DHT22;4593;53.652;10.168;2023-04-15T02:15:11;7.30;100.00
9116;DHT22;4593;53.652;10.168;2023-04-15T02:17:36;7.30;100.00
9116;DHT22;4593;53.652;10.168;2023-04-15T02:20:03;7.40;100.00
9116;DHT22;4593;53.652;10.168;2023-04-15T02:22:33;7.50;100.00
9116;DHT22;4593;53.652;10.168;2023-04-15T02:24:59;7.50;100.00
9116;DHT22;4593;53.652;10.168;2023-04-15T02:27:25;7.50;100.00
9116;DHT22;4593;53.652;10.168;2023-04-15T02:29:52;7.30;100.00
9116;DHT22;4593;53.652;10.168;2023-04-15T02:32:18;7.30;100.00
9116;DHT22;4593;53.652;10.168;2023-04-15T02:34:44;7.20;100.00
9116;DHT22;4593;53.652;10.168;2023-04-15T02:37:11;7.20;100.00
9116;DHT22;4593;53.652;10.168;2023-04-15T02:39:37;7.20;100.00
9116;DHT22;4593;53.652;10.168;2023-04-15T02:42:04;7.20;100.00
9116;DHT22;4593;53.652;10.168;2023-04-15T02:44:31;7.10;100.00
9116;DHT22;4593;53.652;10.168;2023-04-15T02:46:57;7.10;100.00
9116;DHT22;4593;53.652;10.168;2023-04-15T02:49:24;7.20;100.00
9116;DHT22;4593;53.652;10.168;2023-04-15T02:51:50;7.20;100.00
9116;DHT22;4593;53.652;10.168;2023-04-15T02:54:19;7.10;100.00
9116;DHT22;4593;53.652;10.168;2023-04-15T02:56:47;7.10;100.00
9116;DHT22;4593;53.652;10.168;2023-04-15T02:59:13;7.20;100.00
9116;DHT22;4593;53.652;10.168;2023-04-15T03:01:38;7.10;100.00
9116;DHT22;4593;53.652;10.168;2023-04-15T03:04:04;7.10;100.00
9116;DHT22;4593;53.652;10.168;2023-04-15T03:06:30;7.20;100.00
9116;DHT22;4593;53.652;10.168;2023-04-15T03:08:56;7.20;100.00
9116;DHT22;4593;53.652;10.168;2023-04-15T03:11:24;7.30;100.00
9116;DHT22;4593;53.652;10.168;2023-04-15T03:13:51;7.20;100.00
9116;DHT22;4593;53.652;10.168;2023-04-15T03:16:17;7.20;100.00
9116;DHT22;4593;53.652;10.168;2023-04-15T03:18:42;7.30;100.00
9116;DHT22;4593;53.652;10.168;2023-04-15T03:21:08;7.40;100.00
9116;DHT22;4593;53.652;10.168;2023-04-15T03:23:34;7.50;100.00
9116;DHT22;4593;53.652;10.168;2023-04-15T03:26:03;7.40;100.00
9116;DHT22;4593;53.652;10.168;2023-04-15T03:28:29;7.30;100.00
9116;DHT22;4593;53.652;10.168;2023-04-15T03:30:55;7.30;100.00
9116;DHT22;4593;53.652;10.168;2023-04-15T03:33:21;7.30;100.00
9116;DHT22;4593;53.652;10.168;2023-04-15T03:35:46;7.20;100.00
9116;DHT22;4593;53.652;10.168;2023-04-15T03:38:12;7.40;100.00
9116;DHT22;4593;53.652;10.168;2023-04-15T03:40:40;7.40;100.00
9116;DHT22;4593;53.652;10.168;2023-04-15T03:43:06;7.40;100.00
9116;DHT22;4593;53.652;10.168;2023-04-15T03:45:32;7.50;100.00
9116;DHT22;4593;53.652;10.168;2023-04-15T03:47:57;7.60;100.00
9116;DHT22;4593;53.652;10.168;2023-04-15T03:50:23;7.60;100.00
9116;DHT22;4593;53.652;10.168;2023-04-15T03:52:49;7.70;100.00
9116;DHT22;4593;53.652;10.168;2023-04-15T03:55:15;7.70;100.00
9116;DHT22;4593;53.652;10.168;2023-04-15T03:57:40;7.60;100.00
9116;DHT22;4593;53.652;10.168;2023-04-15T04:00:07;7.50;100.00
9116;DHT22;4593;53.652;10.168;2023-04-15T04:02:36;7.40;100.00
9116;DHT22;4593;53.652;10.168;2023-04-15T04:05:02;7.60;100.00
9116;DHT22;4593;53.652;10.168;2023-04-15T04:07:28;7.50;100.00
9116;DHT22;4593;53.652;10.168;2023-04-15T04:09:55;7.60;100.00
9116;DHT22;4593;53.652;10.168;2023-04-15T04:12:21;7.60;100.00
9116;DHT22;4593;53.652;10.168;2023-04-15T04:14:47;7.40;100.00
9116;DHT22;4593;53.652;10.168;2023-04-15T04:17:12;7.30;100.00
9116;DHT22;4593;53.652;10.168;2023-04-15T04:19:38;7.40;100.00
9116;DHT22;4593;53.652;10.168;2023-04-15T04:22:04;7.40;100.00
9116;DHT22;4593;53.652;10.168;2023-04-15T04:24:30;7.40;100.00
9116;DHT22;4593;53.652;10.168;2023-04-15T04:26:56;7.40;100.00
9116;DHT22;4593;53.652;10.168;2023-04-15T04:29:22;7.40;100.00
9116;DHT22;4593;53.652;10.168;2023-04-15T04:31:48;7.40;100.00
9116;DHT22;4593;53.652;10.168;2023-04-15T04:34:14;7.50;100.00
9116;DHT22;4593;53.652;10.168;2023-04-15T04:36:40;7.60;100.00
9116;DHT22;4593;53.652;10.168;2023-04-15T04:39:06;7.50;100.00
9116;DHT22;4593;53.652;10.168;2023-04-15T04:41:32;7.40;100.00
9116;DHT22;4593;53.652;10.168;2023-04-15T04:43:58;7.40;100.00
9116;DHT22;4593;53.652;10.168;2023-04-15T04:46:23;7.50;100.00
9116;DHT22;4593;53.652;10.168;2023-04-15T04:48:49;7.50;100.00
9116;DHT22;4593;53.652;10.168;2023-04-15T04:51:15;7.50;100.00
9116;DHT22;4593;53.652;10.168;2023-04-15T04:53:41;7.50;100.00
9116;DHT22;4593;53.652;10.168;2023-04-15T04:56:07;7.50;100.00
9116;DHT22;4593;53.652;10.168;2023-04-15T04:58:33;7.50;100.00
9116;DHT22;4593;53.652;10.168;2023-04-15T05:00:59;7.50;100.00
9116;DHT22;4593;53.652;10.168;2023-04-15T05:03:24;7.50;100.00
9116;DHT22;4593;53.652;10.168;2023-04-15T05:05:50;7.70;100.00
9116;DHT22;4593;53.652;10.168;2023-04-15T05:08:16;7.80;100.00
9116;DHT22;4593;53.652;10.168;2023-04-15T05:10:41;7.90;100.00
9116;DHT22;4593;53.652;10.168;2023-04-15T05:13:07;7.80;100.00
9116;DHT22;4593;53.652;10.168;2023-04-15T05:15:33;7.80;100.00
9116;DHT22;4593;53.652;10.168;2023-04-15T05:18:01;7.90;100.00
9116;DHT22;4593;53.652;10.168;2023-04-15T05:20:27;7.90;100.00
9116;DHT22;4593;53.652;10.168;2023-04-15T05:22:53;7.80;100.00
9116;DHT22;4593;53.652;10.168;2023-04-15T05:25:18;7.80;100.00
9116;DHT22;4593;53.652;10.168;2023-04-15T05:27:44;7.70;100.00
9116;DHT22;4593;53.652;10.168;2023-04-15T05:30:10;7.70;100.00
9116;DHT22;4593;53.652;10.168;2023-04-15T05:32:36;7.70;100.00
9116;DHT22;4593;53.652;10.168;2023-04-15T05:35:01;7.80;100.00
9116;DHT22;4593;53.652;10.168;2023-04-15T05:37:27;7.60;100.00
9116;DHT22;4593;53.652;10.168;2023-04-15T05:39:53;7.60;100.00
9116;DHT22;4593;53.652;10.168;2023-04-15T05:42:18;7.70;100.00
9116;DHT22;4593;53.652;10.168;2023-04-15T05:44:44;7.60;100.00
9116;DHT22;4593;53.652;10.168;2023-04-15T05:47:10;7.70;100.00
9116;DHT22;4593;53.652;10.168;2023-04-15T05:49:36;7.80;100.00
9116;DHT22;4593;53.652;10.168;2023-04-15T05:52:01;7.70;100.00
9116;DHT22;4593;53.652;10.168;2023-04-15T05:54:27;7.70;100.00
9116;DHT22;4593;53.652;10.168;2023-04-15T05:56:53;7.80;100.00
9116;DHT22;4593;53.652;10.168;2023-04-15T05:59:19;7.80;100.00
9116;DHT22;4593;53.652;10.168;2023-04-15T06:01:45;7.80;100.00
9116;DHT22;4593;53.652;10.168;2023-04-15T06:04:11;7.80;100.00
9116;DHT22;4593;53.652;10.168;2023-04-15T06:06:37;7.80;100.00
9116;DHT22;4593;53.652;10.168;2023-04-15T06:09:03;7.80;100.00
9116;DHT22;4593;53.652;10.168;2023-04-15T06:11:29;7.80;100.00
9116;DHT22;4593;53.652;10.168;2023-04-15T06:13:55;7.70;100.00
9116;DHT22;4593;53.652;10.168;2023-04-15T06:16:21;7.80;100.00
9116;DHT22;4593;53.652;10.168;2023-04-15T06:18:47;7.80;100.00
9116;DHT22;4593;53.652;10.168;2023-04-15T06:21:13;7.90;100.00
9116;DHT22;4593;53.652;10.168;2023-04-15T06:23:39;7.90;100.00
9116;DHT22;4593;53.652;10.168;2023-04-15T06:26:06;7.90;100.00
9116;DHT22;4593;53.652;10.168;2023-04-15T06:28:31;7.80;100.00
9116;DHT22;4593;53.652;10.168;2023-04-15T06:30:57;7.80;100.00
9116;DHT22;4593;53.652;10.168;2023-04-15T06:33:23;7.80;100.00
9116;DHT22;4593;53.652;10.168;2023-04-15T06:35:48;7.90;100.00
9116;DHT22;4593;53.652;10.168;2023-04-15T06:38:14;8.00;100.00
9116;DHT22;4593;53.652;10.168;2023-04-15T06:40:40;8.00;100.00
9116;DHT22;4593;53.652;10.168;2023-04-15T06:43:06;7.90;100.00
9116;DHT22;4593;53.652;10.168;2023-04-15T06:45:32;7.80;100.00
9116;DHT22;4593;53.652;10.168;2023-04-15T06:47:58;7.80;100.00
9116;DHT22;4593;53.652;10.168;2023-04-15T06:50:23;8.00;100.00
9116;DHT22;4593;53.652;10.168;2023-04-15T06:52:49;8.00;100.00
9116;DHT22;4593;53.652;10.168;2023-04-15T06:55:15;8.10;100.00
9116;DHT22;4593;53.652;10.168;2023-04-15T06:57:40;8.10;100.00
9116;DHT22;4593;53.652;10.168;2023-04-15T07:00:07;7.90;100.00
9116;DHT22;4593;53.652;10.168;2023-04-15T07:02:33;7.80;100.00
9116;DHT22;4593;53.652;10.168;2023-04-15T07:04:58;7.80;100.00
9116;DHT22;4593;53.652;10.168;2023-04-15T07:07:24;7.80;100.00
9116;DHT22;4593;53.652;10.168;2023-04-15T07:09:50;7.80;100.00
9116;DHT22;4593;53.652;10.168;2023-04-15T07:12:18;7.90;100.00
9116;DHT22;4593;53.652;10.168;2023-04-15T07:14:43;8.00;100.00
9116;DHT22;4593;53.652;10.168;2023-04-15T07:17:09;7.90;100.00
9116;DHT22;4593;53.652;10.168;2023-04-15T07:19:35;7.90;100.00
9116;DHT22;4593;53.652;10.168;2023-04-15T07:22:01;7.90;100.00
9116;DHT22;4593;53.652;10.168;2023-04-15T07:24:27;7.90;100.00
9116;DHT22;4593;53.652;10.168;2023-04-15T07:26:53;7.90;100.00
9116;DHT22;4593;53.652;10.168;2023-04-15T07:29:22;8.10;100.00
9116;DHT22;4593;53.652;10.168;2023-04-15T07:31:47;8.10;100.00
9116;DHT22;4593;53.652;10.168;2023-04-15T07:34:13;8.10;100.00
9116;DHT22;4593;53.652;10.168;2023-04-15T07:36:39;8.20;100.00
9116;DHT22;4593;53.652;10.168;2023-04-15T07:39:05;8.30;100.00
9116;DHT22;4593;53.652;10.168;2023-04-15T07:41:31;8.20;100.00
9116;DHT22;4593;53.652;10.168;2023-04-15T07:43:56;8.20;100.00
9116;DHT22;4593;53.652;10.168;2023-04-15T07:46:22;8.10;100.00
9116;DHT22;4593;53.652;10.168;2023-04-15T07:48:49;8.20;100.00
9116;DHT22;4593;53.652;10.168;2023-04-15T07:51:15;8.40;100.00
9116;DHT22;4593;53.652;10.168;2023-04-15T07:53:42;8.30;100.00
9116;DHT22;4593;53.652;10.168;2023-04-15T07:56:08;8.30;100.00
9116;DHT22;4593;53.652;10.168;2023-04-15T07:58:34;8.30;100.00
9116;DHT22;4593;53.652;10.168;2023-04-15T08:01:00;8.40;100.00
9116;DHT22;4593;53.652;10.168;2023-04-15T08:03:26;8.50;100.00
9116;DHT22;4593;53.652;10.168;2023-04-15T08:05:52;8.70;100.00
9116;DHT22;4593;53.652;10.168;2023-04-15T08:08:18;8.80;100.00
9116;DHT22;4593;53.652;10.168;2023-04-15T08:10:44;8.90;99.80
9116;DHT22;4593;53.652;10.168;2023-04-15T08:13:10;9.00;99.30
9116;DHT22;4593;53.652;10.168;2023-04-15T08:15:36;9.10;99.20
9116;DHT22;4593;53.652;10.168;2023-04-15T08:18:02;9.20;98.20
9116;DHT22;4593;53.652;10.168;2023-04-15T08:20:28;9.30;98.30
9116;DHT22;4593;53.652;10.168;2023-04-15T08:22:54;9.30;98.40
9116;DHT22;4593;53.652;10.168;2023-04-15T08:25:20;9.30;97.30
9116;DHT22;4593;53.652;10.168;2023-04-15T08:27:46;9.40;97.40
9116;DHT22;4593;53.652;10.168;2023-04-15T08:30:11;9.40;96.90
9116;DHT22;4593;53.652;10.168;2023-04-15T08:32:37;9.20;97.40
9116;DHT22;4593;53.652;10.168;2023-04-15T08:35:03;8.80;99.10
9116;DHT22;4593;53.652;10.168;2023-04-15T08:37:29;8.80;100.00
9116;DHT22;4593;53.652;10.168;2023-04-15T08:39:54;9.00;100.00
9116;DHT22;4593;53.652;10.168;2023-04-15T08:42:30;9.30;99.70
9116;DHT22;4593;53.652;10.168;2023-04-15T08:44:59;9.40;98.30
9116;DHT22;4593;53.652;10.168;2023-04-15T08:47:29;9.50;97.40
9116;DHT22;4593;53.652;10.168;2023-04-15T08:49:56;9.50;96.80
9116;DHT22;4593;53.652;10.168;2023-04-15T08:52:26;9.50;96.70
9116;DHT22;4593;53.652;10.168;2023-04-15T08:54:55;9.30;97.50
9116;DHT22;4593;53.652;10.168;2023-04-15T08:57:25;9.40;98.00
9116;DHT22;4593;53.652;10.168;2023-04-15T08:59:54;9.80;97.60
9116;DHT22;4593;53.652;10.168;2023-04-15T09:02:20;10.00;95.90
9116;DHT22;4593;53.652;10.168;2023-04-15T09:04:47;10.20;95.20
9116;DHT22;4593;53.652;10.168;2023-04-15T09:07:13;10.30;93.50
9116;DHT22;4593;53.652;10.168;2023-04-15T09:09:39;10.10;93.20
9116;DHT22;4593;53.652;10.168;2023-04-15T09:12:07;10.00;94.90
9116;DHT22;4593;53.652;10.168;2023-04-15T09:14:33;10.10;95.10
9116;DHT22;4593;53.652;10.168;2023-04-15T09:17:01;10.40;93.90
9116;DHT22;4593;53.652;10.168;2023-04-15T09:19:29;10.70;93.00
9116;DHT22;4593;53.652;10.168;2023-04-15T09:21:57;11.30;90.40
9116;DHT22;4593;53.652;10.168;2023-04-15T09:24:23;11.60;87.70
9116;DHT22;4593;53.652;10.168;2023-04-15T09:26:53;11.50;87.50
9116;DHT22;4593;53.652;10.168;2023-04-15T09:29:24;11.40;87.80
9116;DHT22;4593;53.652;10.168;2023-04-15T09:31:51;11.20;88.10
9116;DHT22;4593;53.652;10.168;2023-04-15T09:34:17;11.50;87.50
9116;DHT22;4593;53.652;10.168;2023-04-15T09:39:12;11.20;87.00
9116;DHT22;4593;53.652;10.168;2023-04-15T09:41:39;11.50;86.40
9116;DHT22;4593;53.652;10.168;2023-04-15T09:44:22;11.30;85.80
9116;DHT22;4593;53.652;10.168;2023-04-15T09:46:48;11.40;86.40
9116;DHT22;4593;53.652;10.168;2023-04-15T09:49:13;11.30;87.50
9116;DHT22;4593;53.652;10.168;2023-04-15T09:51:40;11.30;87.60
9116;DHT22;4593;53.652;10.168;2023-04-15T09:54:06;11.60;86.80
9116;DHT22;4593;53.652;10.168;2023-04-15T09:56:36;11.70;86.60
9116;DHT22;4593;53.652;10.168;2023-04-15T09:59:04;11.80;86.40
9116;DHT22;4593;53.652;10.168;2023-04-15T10:01:30;12.20;84.90
9116;DHT22;4593;53.652;10.168;2023-04-15T10:03:57;12.60;82.50
9116;DHT22;4593;53.652;10.168;2023-04-15T10:06:26;12.80;80.80
9116;DHT22;4593;53.652;10.168;2023-04-15T10:08:53;12.40;81.20
9116;DHT22;4593;53.652;10.168;2023-04-15T10:11:20;12.10;82.60
9116;DHT22;4593;53.652;10.168;2023-04-15T10:13:49;11.90;84.40
9116;DHT22;4593;53.652;10.168;2023-04-15T10:16:18;12.10;85.20
9116;DHT22;4593;53.652;10.168;2023-04-15T10:18:45;12.30;83.20
9116;DHT22;4593;53.652;10.168;2023-04-15T10:21:12;12.20;83.70
9116;DHT22;4593;53.652;10.168;2023-04-15T10:23:41;12.30;84.10
9116;DHT22;4593;53.652;10.168;2023-04-15T10:26:07;12.30;84.10
9116;DHT22;4593;53.652;10.168;2023-04-15T10:28:34;12.40;82.80
9116;DHT22;4593;53.652;10.168;2023-04-15T10:31:00;12.30;82.80
9116;DHT22;4593;53.652;10.168;2023-04-15T10:33:28;12.30;83.90
9116;DHT22;4593;53.652;10.168;2023-04-15T10:35:54;12.90;83.50
9116;DHT22;4593;53.652;10.168;2023-04-15T10:38:39;13.50;82.10
9116;DHT22;4593;53.652;10.168;2023-04-15T10:43:47;13.20;79.10
9116;DHT22;4593;53.652;10.168;2023-04-15T10:46:12;13.40;79.00
9116;DHT22;4593;53.652;10.168;2023-04-15T10:48:49;13.40;78.40
9116;DHT22;4593;53.652;10.168;2023-04-15T10:51:16;13.40;78.20
9116;DHT22;4593;53.652;10.168;2023-04-15T10:53:50;13.50;75.60
9116;DHT22;4593;53.652;10.168;2023-04-15T10:56:20;13.30;75.10
9116;DHT22;4593;53.652;10.168;2023-04-15T10:58:46;13.30;74.80
9116;DHT22;4593;53.652;10.168;2023-04-15T11:01:12;13.40;74.40
9116;DHT22;4593;53.652;10.168;2023-04-15T11:03:41;13.90;73.80
9116;DHT22;4593;53.652;10.168;2023-04-15T11:06:08;14.00;72.30
9116;DHT22;4593;53.652;10.168;2023-04-15T11:08:55;14.00;71.80
9116;DHT22;4593;53.652;10.168;2023-04-15T11:11:21;14.10;71.50
9116;DHT22;4593;53.652;10.168;2023-04-15T11:13:48;14.00;72.40
9116;DHT22;4593;53.652;10.168;2023-04-15T11:16:15;13.80;72.20
9116;DHT22;4593;53.652;10.168;2023-04-15T11:18:41;13.90;72.50
9116;DHT22;4593;53.652;10.168;2023-04-15T11:21:07;13.80;71.60
9116;DHT22;4593;53.652;10.168;2023-04-15T11:23:40;13.60;72.40
9116;DHT22;4593;53.652;10.168;2023-04-15T11:26:11;13.50;73.30
9116;DHT22;4593;53.652;10.168;2023-04-15T11:28:42;13.70;72.40
9116;DHT22;4593;53.652;10.168;2023-04-15T11:31:15;13.90;72.00
9116;DHT22;4593;53.652;10.168;2023-04-15T11:33:58;14.00;71.40
9116;DHT22;4593;53.652;10.168;2023-04-15T11:36:27;14.00;71.30
9116;DHT22;4593;53.652;10.168;2023-04-15T11:38:54;14.00;72.40
9116;DHT22;4593;53.652;10.168;2023-04-15T11:41:22;14.10;70.00
9116;DHT22;4593;53.652;10.168;2023-04-15T11:43:49;13.70;71.60
9116;DHT22;4593;53.652;10.168;2023-04-15T11:46:15;13.90;71.70
9116;DHT22;4593;53.652;10.168;2023-04-15T11:48:44;13.90;70.90
9116;DHT22;4593;53.652;10.168;2023-04-15T11:51:11;13.90;70.70
9116;DHT22;4593;53.652;10.168;2023-04-15T11:53:38;14.00;71.90
9116;DHT22;4593;53.652;10.168;2023-04-15T11:56:05;14.00;71.70
9116;DHT22;4593;53.652;10.168;2023-04-15T11:58:34;13.80;70.40
9116;DHT22;4593;53.652;10.168;2023-04-15T12:01:01;13.70;71.80
9116;DHT22;4593;53.652;10.168;2023-04-15T12:09:02;13.30;73.60
9116;DHT22;4593;53.652;10.168;2023-04-15T12:11:50;13.10;74.30
9116;DHT22;4593;53.652;10.168;2023-04-15T12:14:32;13.00;74.80
9116;DHT22;4593;53.652;10.168;2023-04-15T12:17:00;12.90;75.20
9116;DHT22;4593;53.652;10.168;2023-04-15T12:19:27;13.20;73.70
9116;DHT22;4593;53.652;10.168;2023-04-15T12:21:59;13.30;71.90
9116;DHT22;4593;53.652;10.168;2023-04-15T12:24:25;13.00;72.70
9116;DHT22;4593;53.652;10.168;2023-04-15T12:26:55;12.80;73.10
9116;DHT22;4593;53.652;10.168;2023-04-15T12:29:26;13.00;73.60
9116;DHT22;4593;53.652;10.168;2023-04-15T12:31:54;13.50;72.20
9116;DHT22;4593;53.652;10.168;2023-04-15T12:34:31;13.90;69.70
9116;DHT22;4593;53.652;10.168;2023-04-15T12:36:59;13.50;69.60
9116;DHT22;4593;53.652;10.168;2023-04-15T12:39:26;13.30;70.90
9116;DHT22;4593;53.652;10.168;2023-04-15T12:41:53;13.60;70.70
9116;DHT22;4593;53.652;10.168;2023-04-15T12:44:20;13.70;69.40
9116;DHT22;4593;53.652;10.168;2023-04-15T12:46:47;13.70;69.70
9116;DHT22;4593;53.652;10.168;2023-04-15T12:49:12;13.90;69.20
9116;DHT22;4593;53.652;10.168;2023-04-15T12:51:44;14.00;68.60
9116;DHT22;4593;53.652;10.168;2023-04-15T12:54:10;14.10;67.20
9116;DHT22;4593;53.652;10.168;2023-04-15T12:56:35;14.20;66.90
9116;DHT22;4593;53.652;10.168;2023-04-15T12:59:01;14.30;67.60
9116;DHT22;4593;53.652;10.168;2023-04-15T13:01:27;14.60;65.10
9116;DHT22;4593;53.652;10.168;2023-04-15T13:03:53;14.40;65.00
9116;DHT22;4593;53.652;10.168;2023-04-15T13:06:18;14.40;65.50
9116;DHT22;4593;53.652;10.168;2023-04-15T13:08:44;14.50;64.00
9116;DHT22;4593;53.652;10.168;2023-04-15T13:11:10;14.50;63.40
9116;DHT22;4593;53.652;10.168;2023-04-15T13:13:35;14.00;64.40
9116;DHT22;4593;53.652;10.168;2023-04-15T13:16:01;14.20;65.40
9116;DHT22;4593;53.652;10.168;2023-04-15T13:18:27;14.50;64.50
9116;DHT22;4593;53.652;10.168;2023-04-15T13:20:53;14.30;64.70
9116;DHT22;4593;53.652;10.168;2023-04-15T13:23:20;13.60;66.40
9116;DHT22;4593;53.652;10.168;2023-04-15T13:25:45;13.70;67.20
9116;DHT22;4593;53.652;10.168;2023-04-15T13:28:11;14.30;66.70
9116;DHT22;4593;53.652;10.168;2023-04-15T13:30:37;14.70;63.70
9116;DHT22;4593;53.652;10.168;2023-04-15T13:33:03;14.50;62.30
9116;DHT22;4593;53.652;10.168;2023-04-15T13:35:30;14.00;62.50
9116;DHT22;4593;53.652;10.168;2023-04-15T13:37:57;13.50;63.90
9116;DHT22;4593;53.652;10.168;2023-04-15T13:40:22;13.40;65.40
9116;DHT22;4593;53.652;10.168;2023-04-15T13:42:48;13.30;65.60
9116;DHT22;4593;53.652;10.168;2023-04-15T13:45:14;13.30;65.60
9116;DHT22;4593;53.652;10.168;2023-04-15T13:47:40;13.30;65.10
9116;DHT22;4593;53.652;10.168;2023-04-15T13:50:06;13.40;65.10
9116;DHT22;4593;53.652;10.168;2023-04-15T13:52:32;13.50;65.10
9116;DHT22;4593;53.652;10.168;2023-04-15T13:54:58;13.50;64.20
9116;DHT22;4593;53.652;10.168;2023-04-15T13:57:24;13.40;64.20
9116;DHT22;4593;53.652;10.168;2023-04-15T13:59:50;13.40;65.40
9116;DHT22;4593;53.652;10.168;2023-04-15T14:02:15;13.40;66.10
9116;DHT22;4593;53.652;10.168;2023-04-15T14:04:41;13.70;65.80
9116;DHT22;4593;53.652;10.168;2023-04-15T14:07:07;13.60;65.10
9116;DHT22;4593;53.652;10.168;2023-04-15T14:09:33;13.50;65.90
9116;DHT22;4593;53.652;10.168;2023-04-15T14:11:59;13.60;65.10
9116;DHT22;4593;53.652;10.168;2023-04-15T14:14:26;13.70;64.80
9116;DHT22;4593;53.652;10.168;2023-04-15T14:16:51;13.80;64.60
9116;DHT22;4593;53.652;10.168;2023-04-15T14:19:17;13.80;64.50
9116;DHT22;4593;53.652;10.168;2023-04-15T14:21:43;13.50;65.40
9116;DHT22;4593;53.652;10.168;2023-04-15T14:24:10;13.60;64.90
9116;DHT22;4593;53.652;10.168;2023-04-15T14:26:36;13.60;65.80
9116;DHT22;4593;53.652;10.168;2023-04-15T14:29:01;13.60;65.20
9116;DHT22;4593;53.652;10.168;2023-04-15T14:31:27;13.70;64.80
9116;DHT22;4593;53.652;10.168;2023-04-15T14:33:53;13.90;64.20
9116;DHT22;4593;53.652;10.168;2023-04-15T14:36:18;13.70;63.70
9116;DHT22;4593;53.652;10.168;2023-04-15T14:38:44;13.50;64.30
9116;DHT22;4593;53.652;10.168;2023-04-15T14:41:09;13.50;65.50
9116;DHT22;4593;53.652;10.168;2023-04-15T14:43:36;13.70;64.90
9116;DHT22;4593;53.652;10.168;2023-04-15T14:46:02;13.70;64.40
9116;DHT22;4593;53.652;10.168;2023-04-15T14:48:30;13.80;64.80
9116;DHT22;4593;53.652;10.168;2023-04-15T14:50:56;13.80;64.60
9116;DHT22;4593;53.652;10.168;2023-04-15T14:53:22;13.80;64.80
9116;DHT22;4593;53.652;10.168;2023-04-15T14:55:48;14.00;64.70
9116;DHT22;4593;53.652;10.168;2023-04-15T14:58:13;13.90;64.20
9116;DHT22;4593;53.652;10.168;2023-04-15T15:00:39;13.80;64.90
9116;DHT22;4593;53.652;10.168;2023-04-15T15:03:09;13.80;65.10
9116;DHT22;4593;53.652;10.168;2023-04-15T15:05:39;13.60;65.90
9116;DHT22;4593;53.652;10.168;2023-04-15T15:08:06;13.50;66.20
9116;DHT22;4593;53.652;10.168;2023-04-15T15:10:33;13.60;65.90
9116;DHT22;4593;53.652;10.168;2023-04-15T15:12:58;13.60;65.80
9116;DHT22;4593;53.652;10.168;2023-04-15T15:15:24;13.60;66.00
9116;DHT22;4593;53.652;10.168;2023-04-15T15:17:50;13.80;65.90
9116;DHT22;4593;53.652;10.168;2023-04-15T15:20:16;13.90;65.60
9116;DHT22;4593;53.652;10.168;2023-04-15T15:22:43;14.00;65.30
9116;DHT22;4593;53.652;10.168;2023-04-15T15:25:09;13.90;65.50
9116;DHT22;4593;53.652;10.168;2023-04-15T15:27:35;13.70;66.60
9116;DHT22;4593;53.652;10.168;2023-04-15T15:30:02;13.90;66.30
9116;DHT22;4593;53.652;10.168;2023-04-15T15:32:28;13.80;66.00
9116;DHT22;4593;53.652;10.168;2023-04-15T15:34:54;13.70;66.40
9116;DHT22;4593;53.652;10.168;2023-04-15T15:37:19;13.70;66.70
9116;DHT22;4593;53.652;10.168;2023-04-15T15:39:45;13.40;67.80
9116;DHT22;4593;53.652;10.168;2023-04-15T15:42:11;13.10;69.20
9116;DHT22;4593;53.652;10.168;2023-04-15T15:44:36;12.80;69.30
9116;DHT22;4593;53.652;10.168;2023-04-15T15:47:04;12.70;70.00
9116;DHT22;4593;53.652;10.168;2023-04-15T15:49:29;12.70;70.50
9116;DHT22;4593;53.652;10.168;2023-04-15T15:51:55;12.80;70.50
9116;DHT22;4593;53.652;10.168;2023-04-15T15:54:21;13.10;69.80